sensor_id;sensor_type;location;lat;lon;timestamp;P1;durP1;ratioP1;P2;durP2;ratioP2
18286;SDS011;9269;50.838;12.094;2023-08-06T00:00:06;4.83;;;4.37;;
18286;SDS011;9269;50.838;12.094;2023-08-06T00:02:38;5.03;;;4.57;;
18286;SDS011;9269;50.838;12.094;2023-08-06T00:05:08;5.17;;;4.67;;
18286;SDS011;9269;50.838;12.094;2023-08-06T00:07:41;4.93;;;4.50;;
18286;SDS011;9269;50.838;12.094;2023-08-06T00:10:10;5.07;;;4.60;;
18286;SDS011;9269;50.838;12.094;2023-08-06T00:12:45;4.77;;;4.37;;
18286;SDS011;9269;50.838;12.094;2023-08-06T00:15:19;5.23;;;4.73;;
18286;SDS011;9269;50.838;12.094;2023-08-06T00:17:50;4.80;;;4.40;;
18286;SDS011;9269;50.838;12.094;2023-08-06T00:20:25;4.90;;;4.40;;
18286;SDS011;9269;50.838;12.094;2023-08-06T00:23:01;4.40;;;4.03;;
18286;SDS011;9269;50.838;12.094;2023-08-06T00:25:33;5.37;;;4.70;;
18286;SDS011;9269;50.838;12.094;2023-08-06T00:28:04;4.10;;;3.80;;
18286;SDS011;9269;50.838;12.094;2023-08-06T00:30:36;4.60;;;4.20;;
18286;SDS011;9269;50.838;12.094;2023-08-06T00:33:13;4.40;;;4.00;;
18286;SDS011;9269;50.838;12.094;2023-08-06T00:35:45;4.40;;;4.00;;
18286;SDS011;9269;50.838;12.094;2023-08-06T00:38:17;4.67;;;3.73;;
18286;SDS011;9269;50.838;12.094;2023-08-06T00:40:48;4.10;;;3.50;;
18286;SDS011;9269;50.838;12.094;2023-08-06T00:43:23;3.33;;;3.13;;
18286;SDS011;9269;50.838;12.094;2023-08-06T00:45:58;3.10;;;2.90;;
18286;SDS011;9269;50.838;12.094;2023-08-06T00:48:30;3.33;;;2.93;;
18286;SDS011;9269;50.838;12.094;2023-08-06T00:51:01;3.33;;;3.03;;
18286;SDS011;9269;50.838;12.094;2023-08-06T00:53:34;3.60;;;2.67;;
18286;SDS011;9269;50.838;12.094;2023-08-06T00:56:04;3.23;;;2.70;;
18286;SDS011;9269;50.838;12.094;2023-08-06T00:58:37;2.33;;;2.23;;
18286;SDS011;9269;50.838;12.094;2023-08-06T01:01:13;3.63;;;2.10;;
18286;SDS011;9269;50.838;12.094;2023-08-06T01:03:46;4.23;;;2.37;;
18286;SDS011;9269;50.838;12.094;2023-08-06T01:06:23;2.43;;;2.10;;
18286;SDS011;9269;50.838;12.094;2023-08-06T01:09:09;2.17;;;1.90;;
18286;SDS011;9269;50.838;12.094;2023-08-06T01:11:52;2.10;;;2.00;;
18286;SDS011;9269;50.838;12.094;2023-08-06T01:14:30;2.13;;;1.90;;
18286;SDS011;9269;50.838;12.094;2023-08-06T01:17:08;2.40;;;2.20;;
18286;SDS011;9269;50.838;12.094;2023-08-06T01:19:42;2.17;;;1.97;;
18286;SDS011;9269;50.838;12.094;2023-08-06T01:22:17;2.97;;;2.27;;
18286;SDS011;9269;50.838;12.094;2023-08-06T01:24:47;1.80;;;1.70;;
18286;SDS011;9269;50.838;12.094;2023-08-06T01:27:24;1.90;;;1.80;;
18286;SDS011;9269;50.838;12.094;2023-08-06T01:30:02;2.03;;;1.83;;
18286;SDS011;9269;50.838;12.094;2023-08-06T01:32:42;1.97;;;1.87;;
18286;SDS011;9269;50.838;12.094;2023-08-06T01:35:15;1.57;;;1.47;;
18286;SDS011;9269;50.838;12.094;2023-08-06T01:37:51;1.83;;;1.73;;
18286;SDS011;9269;50.838;12.094;2023-08-06T01:40:21;2.10;;;2.00;;
18286;SDS011;9269;50.838;12.094;2023-08-06T01:42:55;1.80;;;1.70;;
18286;SDS011;9269;50.838;12.094;2023-08-06T01:45:25;2.60;;;1.80;;
18286;SDS011;9269;50.838;12.094;2023-08-06T01:47:57;2.00;;;1.90;;
18286;SDS011;9269;50.838;12.094;2023-08-06T01:50:26;1.70;;;1.60;;
18286;SDS011;9269;50.838;12.094;2023-08-06T01:52:58;2.00;;;1.90;;
18286;SDS011;9269;50.838;12.094;2023-08-06T01:55:30;1.80;;;1.70;;
18286;SDS011;9269;50.838;12.094;2023-08-06T01:58:04;2.00;;;1.90;;
18286;SDS011;9269;50.838;12.094;2023-08-06T02:00:36;2.13;;;2.00;;
18286;SDS011;9269;50.838;12.094;2023-08-06T02:03:07;1.63;;;1.50;;
18286;SDS011;9269;50.838;12.094;2023-08-06T02:05:40;2.10;;;1.90;;
18286;SDS011;9269;50.838;12.094;2023-08-06T02:08:17;3.63;;;1.83;;
18286;SDS011;9269;50.838;12.094;2023-08-06T02:10:47;2.00;;;1.80;;
18286;SDS011;9269;50.838;12.094;2023-08-06T02:13:20;2.00;;;1.90;;
18286;SDS011;9269;50.838;12.094;2023-08-06T02:15:53;1.90;;;1.80;;
18286;SDS011;9269;50.838;12.094;2023-08-06T02:18:26;2.00;;;1.90;;
18286;SDS011;9269;50.838;12.094;2023-08-06T02:20:58;2.23;;;1.70;;
18286;SDS011;9269;50.838;12.094;2023-08-06T02:23:29;2.70;;;1.93;;
18286;SDS011;9269;50.838;12.094;2023-08-06T02:25:59;1.90;;;1.80;;
18286;SDS011;9269;50.838;12.094;2023-08-06T02:28:32;1.90;;;1.80;;
18286;SDS011;9269;50.838;12.094;2023-08-06T02:31:06;1.90;;;1.80;;
18286;SDS011;9269;50.838;12.094;2023-08-06T02:33:38;2.07;;;1.90;;
18286;SDS011;9269;50.838;12.094;2023-08-06T02:36:10;2.43;;;1.67;;
18286;SDS011;9269;50.838;12.094;2023-08-06T02:38:50;2.53;;;1.87;;
18286;SDS011;9269;50.838;12.094;2023-08-06T02:41:22;2.00;;;1.90;;
18286;SDS011;9269;50.838;12.094;2023-08-06T02:43:52;3.37;;;1.80;;
18286;SDS011;9269;50.838;12.094;2023-08-06T02:46:26;1.70;;;1.60;;
18286;SDS011;9269;50.838;12.094;2023-08-06T02:48:59;1.70;;;1.60;;
18286;SDS011;9269;50.838;12.094;2023-08-06T02:51:34;1.97;;;1.87;;
18286;SDS011;9269;50.838;12.094;2023-08-06T02:54:11;1.80;;;1.70;;
18286;SDS011;9269;50.838;12.094;2023-08-06T02:56:45;2.23;;;2.00;;
18286;SDS011;9269;50.838;12.094;2023-08-06T02:59:16;2.50;;;2.30;;
18286;SDS011;9269;50.838;12.094;2023-08-06T03:01:48;1.87;;;1.77;;
18286;SDS011;9269;50.838;12.094;2023-08-06T03:04:21;2.00;;;1.83;;
18286;SDS011;9269;50.838;12.094;2023-08-06T03:06:50;2.17;;;2.07;;
18286;SDS011;9269;50.838;12.094;2023-08-06T03:09:29;1.90;;;1.80;;
18286;SDS011;9269;50.838;12.094;2023-08-06T03:12:01;2.00;;;1.90;;
18286;SDS011;9269;50.838;12.094;2023-08-06T03:14:39;2.00;;;1.80;;
18286;SDS011;9269;50.838;12.094;2023-08-06T03:17:12;2.10;;;2.00;;
18286;SDS011;9269;50.838;12.094;2023-08-06T03:19:44;3.43;;;2.37;;
18286;SDS011;9269;50.838;12.094;2023-08-06T03:22:14;3.10;;;2.53;;
18286;SDS011;9269;50.838;12.094;2023-08-06T03:24:44;1.90;;;1.80;;
18286;SDS011;9269;50.838;12.094;2023-08-06T03:27:13;2.20;;;2.00;;
18286;SDS011;9269;50.838;12.094;2023-08-06T03:29:48;3.50;;;2.00;;
18286;SDS011;9269;50.838;12.094;2023-08-06T03:32:27;1.97;;;1.87;;
18286;SDS011;9269;50.838;12.094;2023-08-06T03:34:58;2.27;;;2.07;;
18286;SDS011;9269;50.838;12.094;2023-08-06T03:37:30;2.20;;;1.97;;
18286;SDS011;9269;50.838;12.094;2023-08-06T03:40:03;1.97;;;1.70;;
18286;SDS011;9269;50.838;12.094;2023-08-06T03:42:33;2.00;;;1.90;;
18286;SDS011;9269;50.838;12.094;2023-08-06T03:45:04;1.87;;;1.77;;
18286;SDS011;9269;50.838;12.094;2023-08-06T03:47:36;2.93;;;2.20;;
18286;SDS011;9269;50.838;12.094;2023-08-06T03:50:11;2.33;;;2.00;;
18286;SDS011;9269;50.838;12.094;2023-08-06T03:52:44;2.87;;;2.30;;
18286;SDS011;9269;50.838;12.094;2023-08-06T03:55:20;2.93;;;2.73;;
18286;SDS011;9269;50.838;12.094;2023-08-06T03:57:54;3.00;;;2.60;;
18286;SDS011;9269;50.838;12.094;2023-08-06T04:00:26;3.70;;;3.00;;
18286;SDS011;9269;50.838;12.094;2023-08-06T04:02:59;3.33;;;3.03;;
18286;SDS011;9269;50.838;12.094;2023-08-06T04:05:32;4.37;;;2.90;;
18286;SDS011;9269;50.838;12.094;2023-08-06T04:08:03;3.50;;;3.20;;
18286;SDS011;9269;50.838;12.094;2023-08-06T04:10:35;3.53;;;3.23;;
18286;SDS011;9269;50.838;12.094;2023-08-06T04:13:09;3.57;;;3.00;;
18286;SDS011;9269;50.838;12.094;2023-08-06T04:15:39;4.43;;;3.20;;
18286;SDS011;9269;50.838;12.094;2023-08-06T04:18:12;3.17;;;2.87;;
18286;SDS011;9269;50.838;12.094;2023-08-06T04:20:45;3.10;;;2.87;;
18286;SDS011;9269;50.838;12.094;2023-08-06T04:23:17;2.67;;;2.47;;
18286;SDS011;9269;50.838;12.094;2023-08-06T04:25:57;2.63;;;2.43;;
18286;SDS011;9269;50.838;12.094;2023-08-06T04:28:27;4.77;;;2.40;;
18286;SDS011;9269;50.838;12.094;2023-08-06T04:30:59;2.63;;;2.43;;
18286;SDS011;9269;50.838;12.094;2023-08-06T04:33:33;2.50;;;2.30;;
18286;SDS011;9269;50.838;12.094;2023-08-06T04:36:03;2.17;;;2.07;;
18286;SDS011;9269;50.838;12.094;2023-08-06T04:38:41;2.77;;;2.50;;
18286;SDS011;9269;50.838;12.094;2023-08-06T04:41:15;3.20;;;2.73;;
18286;SDS011;9269;50.838;12.094;2023-08-06T04:43:50;3.10;;;2.80;;
18286;SDS011;9269;50.838;12.094;2023-08-06T04:46:26;3.73;;;2.30;;
18286;SDS011;9269;50.838;12.094;2023-08-06T04:49:05;3.13;;;2.60;;
18286;SDS011;9269;50.838;12.094;2023-08-06T04:51:36;2.90;;;2.70;;
18286;SDS011;9269;50.838;12.094;2023-08-06T04:54:08;2.80;;;2.60;;
18286;SDS011;9269;50.838;12.094;2023-08-06T04:56:41;3.10;;;2.80;;
18286;SDS011;9269;50.838;12.094;2023-08-06T04:59:12;2.47;;;2.23;;
18286;SDS011;9269;50.838;12.094;2023-08-06T05:01:45;3.30;;;2.87;;
18286;SDS011;9269;50.838;12.094;2023-08-06T05:04:18;3.53;;;3.23;;
18286;SDS011;9269;50.838;12.094;2023-08-06T05:06:50;4.33;;;2.50;;
18286;SDS011;9269;50.838;12.094;2023-08-06T05:09:24;3.50;;;2.90;;
18286;SDS011;9269;50.838;12.094;2023-08-06T05:12:01;2.90;;;2.70;;
18286;SDS011;9269;50.838;12.094;2023-08-06T05:14:34;4.37;;;2.40;;
18286;SDS011;9269;50.838;12.094;2023-08-06T05:17:05;3.30;;;2.50;;
18286;SDS011;9269;50.838;12.094;2023-08-06T05:19:38;2.60;;;2.40;;
18286;SDS011;9269;50.838;12.094;2023-08-06T05:22:12;2.87;;;2.40;;
18286;SDS011;9269;50.838;12.094;2023-08-06T05:24:50;2.70;;;2.40;;
18286;SDS011;9269;50.838;12.094;2023-08-06T05:27:24;2.50;;;2.30;;
18286;SDS011;9269;50.838;12.094;2023-08-06T05:29:54;2.83;;;2.37;;
18286;SDS011;9269;50.838;12.094;2023-08-06T05:32:28;2.20;;;2.00;;
18286;SDS011;9269;50.838;12.094;2023-08-06T05:35:05;2.17;;;2.07;;
18286;SDS011;9269;50.838;12.094;2023-08-06T05:37:36;4.60;;;2.50;;
18286;SDS011;9269;50.838;12.094;2023-08-06T05:40:10;3.07;;;2.30;;
18286;SDS011;9269;50.838;12.094;2023-08-06T05:42:44;2.60;;;2.40;;
18286;SDS011;9269;50.838;12.094;2023-08-06T05:45:15;2.30;;;2.00;;
18286;SDS011;9269;50.838;12.094;2023-08-06T05:47:45;3.13;;;2.83;;
18286;SDS011;9269;50.838;12.094;2023-08-06T05:50:25;2.30;;;2.10;;
18286;SDS011;9269;50.838;12.094;2023-08-06T05:53:02;4.50;;;3.97;;
18286;SDS011;9269;50.838;12.094;2023-08-06T05:55:35;2.47;;;2.10;;
18286;SDS011;9269;50.838;12.094;2023-08-06T05:58:10;2.77;;;2.57;;
18286;SDS011;9269;50.838;12.094;2023-08-06T06:00:45;4.60;;;3.00;;
18286;SDS011;9269;50.838;12.094;2023-08-06T06:03:20;3.83;;;2.53;;
18286;SDS011;9269;50.838;12.094;2023-08-06T06:06:03;3.47;;;2.83;;
18286;SDS011;9269;50.838;12.094;2023-08-06T06:08:39;3.07;;;2.73;;
18286;SDS011;9269;50.838;12.094;2023-08-06T06:11:14;4.13;;;3.20;;
18286;SDS011;9269;50.838;12.094;2023-08-06T06:13:51;3.73;;;3.00;;
18286;SDS011;9269;50.838;12.094;2023-08-06T06:16:27;3.20;;;2.90;;
18286;SDS011;9269;50.838;12.094;2023-08-06T06:19:06;3.63;;;3.10;;
18286;SDS011;9269;50.838;12.094;2023-08-06T06:21:43;5.27;;;3.77;;
18286;SDS011;9269;50.838;12.094;2023-08-06T06:24:18;4.57;;;3.80;;
18286;SDS011;9269;50.838;12.094;2023-08-06T06:26:55;3.83;;;3.50;;
18286;SDS011;9269;50.838;12.094;2023-08-06T06:29:32;4.60;;;4.20;;
18286;SDS011;9269;50.838;12.094;2023-08-06T06:32:03;4.37;;;3.97;;
18286;SDS011;9269;50.838;12.094;2023-08-06T06:34:39;4.20;;;3.80;;
18286;SDS011;9269;50.838;12.094;2023-08-06T06:37:11;4.10;;;3.73;;
18286;SDS011;9269;50.838;12.094;2023-08-06T06:39:44;4.20;;;3.80;;
18286;SDS011;9269;50.838;12.094;2023-08-06T06:42:16;3.60;;;3.30;;
18286;SDS011;9269;50.838;12.094;2023-08-06T06:44:48;5.73;;;3.40;;
18286;SDS011;9269;50.838;12.094;2023-08-06T06:47:22;3.20;;;3.00;;
18286;SDS011;9269;50.838;12.094;2023-08-06T06:49:53;3.43;;;3.07;;
18286;SDS011;9269;50.838;12.094;2023-08-06T06:52:24;2.87;;;2.67;;
18286;SDS011;9269;50.838;12.094;2023-08-06T06:54:57;3.47;;;3.17;;
18286;SDS011;9269;50.838;12.094;2023-08-06T06:57:33;3.17;;;2.90;;
18286;SDS011;9269;50.838;12.094;2023-08-06T07:00:05;3.00;;;2.80;;
18286;SDS011;9269;50.838;12.094;2023-08-06T07:02:37;3.23;;;3.00;;
18286;SDS011;9269;50.838;12.094;2023-08-06T07:05:12;3.37;;;3.17;;
18286;SDS011;9269;50.838;12.094;2023-08-06T07:07:47;3.30;;;3.00;;
18286;SDS011;9269;50.838;12.094;2023-08-06T07:10:27;4.20;;;3.80;;
18286;SDS011;9269;50.838;12.094;2023-08-06T07:13:00;3.60;;;3.30;;
18286;SDS011;9269;50.838;12.094;2023-08-06T07:15:39;3.90;;;3.60;;
18286;SDS011;9269;50.838;12.094;2023-08-06T07:18:14;4.27;;;3.90;;
18286;SDS011;9269;50.838;12.094;2023-08-06T07:20:47;4.07;;;3.67;;
18286;SDS011;9269;50.838;12.094;2023-08-06T07:23:23;3.70;;;3.37;;
18286;SDS011;9269;50.838;12.094;2023-08-06T07:26:01;3.60;;;3.30;;
18286;SDS011;9269;50.838;12.094;2023-08-06T07:28:40;4.27;;;3.90;;
18286;SDS011;9269;50.838;12.094;2023-08-06T07:31:14;3.90;;;3.60;;
18286;SDS011;9269;50.838;12.094;2023-08-06T07:33:54;3.80;;;3.30;;
18286;SDS011;9269;50.838;12.094;2023-08-06T07:36:25;3.50;;;3.20;;
18286;SDS011;9269;50.838;12.094;2023-08-06T07:38:56;6.03;;;4.97;;
18286;SDS011;9269;50.838;12.094;2023-08-06T07:41:31;4.40;;;3.63;;
18286;SDS011;9269;50.838;12.094;2023-08-06T07:44:11;4.03;;;3.63;;
18286;SDS011;9269;50.838;12.094;2023-08-06T07:46:51;5.87;;;5.27;;
18286;SDS011;9269;50.838;12.094;2023-08-06T07:49:26;8.43;;;6.30;;
18286;SDS011;9269;50.838;12.094;2023-08-06T07:52:00;6.13;;;5.50;;
18286;SDS011;9269;50.838;12.094;2023-08-06T07:54:35;8.23;;;7.20;;
18286;SDS011;9269;50.838;12.094;2023-08-06T07:57:08;8.97;;;7.10;;
18286;SDS011;9269;50.838;12.094;2023-08-06T07:59:39;6.77;;;5.73;;
18286;SDS011;9269;50.838;12.094;2023-08-06T08:02:13;7.00;;;4.43;;
18286;SDS011;9269;50.838;12.094;2023-08-06T08:04:46;7.00;;;5.03;;
18286;SDS011;9269;50.838;12.094;2023-08-06T08:07:20;4.30;;;3.90;;
18286;SDS011;9269;50.838;12.094;2023-08-06T08:09:55;5.43;;;4.20;;
18286;SDS011;9269;50.838;12.094;2023-08-06T08:12:28;4.40;;;4.00;;
18286;SDS011;9269;50.838;12.094;2023-08-06T08:15:01;4.53;;;4.07;;
18286;SDS011;9269;50.838;12.094;2023-08-06T08:17:39;4.40;;;4.00;;
18286;SDS011;9269;50.838;12.094;2023-08-06T08:20:10;5.40;;;3.60;;
18286;SDS011;9269;50.838;12.094;2023-08-06T08:22:42;4.17;;;3.77;;
18286;SDS011;9269;50.838;12.094;2023-08-06T08:25:19;3.63;;;3.33;;
18286;SDS011;9269;50.838;12.094;2023-08-06T08:27:51;3.50;;;3.20;;
18286;SDS011;9269;50.838;12.094;2023-08-06T08:30:25;3.80;;;3.33;;
18286;SDS011;9269;50.838;12.094;2023-08-06T08:32:59;3.80;;;3.23;;
18286;SDS011;9269;50.838;12.094;2023-08-06T08:35:37;3.87;;;3.33;;
18286;SDS011;9269;50.838;12.094;2023-08-06T08:38:11;3.43;;;3.13;;
18286;SDS011;9269;50.838;12.094;2023-08-06T08:40:46;3.30;;;3.00;;
18286;SDS011;9269;50.838;12.094;2023-08-06T08:43:29;4.07;;;3.30;;
18286;SDS011;9269;50.838;12.094;2023-08-06T08:46:01;3.37;;;3.10;;
18286;SDS011;9269;50.838;12.094;2023-08-06T08:48:34;3.27;;;2.97;;
18286;SDS011;9269;50.838;12.094;2023-08-06T08:51:08;3.70;;;3.40;;
18286;SDS011;9269;50.838;12.094;2023-08-06T08:53:45;3.43;;;3.13;;
18286;SDS011;9269;50.838;12.094;2023-08-06T08:56:23;3.30;;;3.00;;
18286;SDS011;9269;50.838;12.094;2023-08-06T08:58:54;5.00;;;2.77;;
18286;SDS011;9269;50.838;12.094;2023-08-06T09:01:26;3.37;;;3.07;;
18286;SDS011;9269;50.838;12.094;2023-08-06T09:04:04;3.37;;;3.00;;
18286;SDS011;9269;50.838;12.094;2023-08-06T09:06:39;3.00;;;2.80;;
18286;SDS011;9269;50.838;12.094;2023-08-06T09:09:17;2.73;;;2.53;;
18286;SDS011;9269;50.838;12.094;2023-08-06T09:11:58;3.00;;;2.80;;
18286;SDS011;9269;50.838;12.094;2023-08-06T09:14:32;3.00;;;2.77;;
18286;SDS011;9269;50.838;12.094;2023-08-06T09:17:06;2.77;;;2.40;;
18286;SDS011;9269;50.838;12.094;2023-08-06T09:19:46;6.80;;;4.20;;
18286;SDS011;9269;50.838;12.094;2023-08-06T09:22:18;6.07;;;4.57;;
18286;SDS011;9269;50.838;12.094;2023-08-06T09:24:49;3.00;;;2.70;;
18286;SDS011;9269;50.838;12.094;2023-08-06T09:27:22;3.80;;;3.30;;
18286;SDS011;9269;50.838;12.094;2023-08-06T09:29:57;4.73;;;3.23;;
18286;SDS011;9269;50.838;12.094;2023-08-06T09:32:44;4.13;;;3.20;;
18286;SDS011;9269;50.838;12.094;2023-08-06T09:35:21;3.50;;;3.10;;
18286;SDS011;9269;50.838;12.094;2023-08-06T09:38:01;4.33;;;2.80;;
18286;SDS011;9269;50.838;12.094;2023-08-06T09:40:38;4.23;;;3.17;;
18286;SDS011;9269;50.838;12.094;2023-08-06T09:43:12;3.30;;;3.00;;
18286;SDS011;9269;50.838;12.094;2023-08-06T09:45:46;2.80;;;2.50;;
18286;SDS011;9269;50.838;12.094;2023-08-06T09:48:18;2.90;;;2.70;;
18286;SDS011;9269;50.838;12.094;2023-08-06T09:50:52;2.87;;;2.50;;
18286;SDS011;9269;50.838;12.094;2023-08-06T09:53:30;3.40;;;3.07;;
18286;SDS011;9269;50.838;12.094;2023-08-06T09:56:05;3.30;;;2.97;;
18286;SDS011;9269;50.838;12.094;2023-08-06T09:58:41;2.80;;;2.60;;
18286;SDS011;9269;50.838;12.094;2023-08-06T10:01:11;3.00;;;2.70;;
18286;SDS011;9269;50.838;12.094;2023-08-06T10:03:47;3.50;;;2.20;;
18286;SDS011;9269;50.838;12.094;2023-08-06T10:06:26;2.60;;;2.40;;
18286;SDS011;9269;50.838;12.094;2023-08-06T10:08:58;2.47;;;2.23;;
18286;SDS011;9269;50.838;12.094;2023-08-06T10:11:31;2.47;;;2.20;;
18286;SDS011;9269;50.838;12.094;2023-08-06T10:14:12;2.50;;;2.20;;
18286;SDS011;9269;50.838;12.094;2023-08-06T10:16:53;2.50;;;2.30;;
18286;SDS011;9269;50.838;12.094;2023-08-06T10:19:30;2.20;;;2.00;;
18286;SDS011;9269;50.838;12.094;2023-08-06T10:22:11;2.20;;;2.10;;
18286;SDS011;9269;50.838;12.094;2023-08-06T10:24:47;5.03;;;2.40;;
18286;SDS011;9269;50.838;12.094;2023-08-06T10:27:19;2.60;;;2.40;;
18286;SDS011;9269;50.838;12.094;2023-08-06T10:33:05;2.00;;;1.90;;
18286;SDS011;9269;50.838;12.094;2023-08-06T10:35:43;2.27;;;2.13;;
18286;SDS011;9269;50.838;12.094;2023-08-06T10:38:24;2.60;;;2.20;;
18286;SDS011;9269;50.838;12.094;2023-08-06T10:41:04;2.27;;;2.10;;
18286;SDS011;9269;50.838;12.094;2023-08-06T10:43:36;2.27;;;2.07;;
18286;SDS011;9269;50.838;12.094;2023-08-06T10:46:22;2.10;;;2.00;;
18286;SDS011;9269;50.838;12.094;2023-08-06T10:49:08;4.10;;;2.10;;
18286;SDS011;9269;50.838;12.094;2023-08-06T10:51:41;2.40;;;2.20;;
18286;SDS011;9269;50.838;12.094;2023-08-06T10:54:21;2.23;;;2.03;;
18286;SDS011;9269;50.838;12.094;2023-08-06T10:56:54;2.40;;;2.20;;
18286;SDS011;9269;50.838;12.094;2023-08-06T10:59:27;2.40;;;2.20;;
18286;SDS011;9269;50.838;12.094;2023-08-06T11:01:58;2.27;;;2.10;;
18286;SDS011;9269;50.838;12.094;2023-08-06T11:04:30;3.20;;;2.20;;
18286;SDS011;9269;50.838;12.094;2023-08-06T11:07:08;2.20;;;1.90;;
18286;SDS011;9269;50.838;12.094;2023-08-06T11:09:44;2.10;;;2.00;;
18286;SDS011;9269;50.838;12.094;2023-08-06T11:12:17;2.77;;;1.90;;
18286;SDS011;9269;50.838;12.094;2023-08-06T11:14:53;2.30;;;2.10;;
18286;SDS011;9269;50.838;12.094;2023-08-06T11:17:29;2.73;;;2.30;;
18286;SDS011;9269;50.838;12.094;2023-08-06T11:20:05;2.30;;;2.10;;
18286;SDS011;9269;50.838;12.094;2023-08-06T11:22:37;2.20;;;2.03;;
18286;SDS011;9269;50.838;12.094;2023-08-06T11:25:17;2.50;;;2.30;;
18286;SDS011;9269;50.838;12.094;2023-08-06T11:27:56;2.40;;;2.20;;
18286;SDS011;9269;50.838;12.094;2023-08-06T11:30:27;3.33;;;2.20;;
18286;SDS011;9269;50.838;12.094;2023-08-06T11:32:59;2.23;;;2.10;;
18286;SDS011;9269;50.838;12.094;2023-08-06T11:35:33;2.47;;;1.93;;
18286;SDS011;9269;50.838;12.094;2023-08-06T11:38:10;2.50;;;2.30;;
18286;SDS011;9269;50.838;12.094;2023-08-06T11:40:51;4.77;;;2.07;;
18286;SDS011;9269;50.838;12.094;2023-08-06T11:43:24;5.27;;;2.23;;
18286;SDS011;9269;50.838;12.094;2023-08-06T11:46:02;5.80;;;2.60;;
18286;SDS011;9269;50.838;12.094;2023-08-06T11:48:50;5.10;;;2.30;;
18286;SDS011;9269;50.838;12.094;2023-08-06T11:51:23;3.87;;;2.47;;
18286;SDS011;9269;50.838;12.094;2023-08-06T11:53:57;2.37;;;2.07;;
18286;SDS011;9269;50.838;12.094;2023-08-06T11:56:31;2.17;;;1.90;;
18286;SDS011;9269;50.838;12.094;2023-08-06T11:59:07;2.43;;;1.97;;
18286;SDS011;9269;50.838;12.094;2023-08-06T12:01:43;2.13;;;1.93;;
18286;SDS011;9269;50.838;12.094;2023-08-06T12:04:17;2.80;;;2.00;;
18286;SDS011;9269;50.838;12.094;2023-08-06T12:07:04;15.27;;;3.67;;
18286;SDS011;9269;50.838;12.094;2023-08-06T12:09:49;6.00;;;2.17;;
18286;SDS011;9269;50.838;12.094;2023-08-06T12:12:27;10.73;;;2.27;;
18286;SDS011;9269;50.838;12.094;2023-08-06T12:15:06;4.70;;;2.33;;
18286;SDS011;9269;50.838;12.094;2023-08-06T12:17:39;3.17;;;1.93;;
18286;SDS011;9269;50.838;12.094;2023-08-06T12:20:09;1.90;;;1.73;;
18286;SDS011;9269;50.838;12.094;2023-08-06T12:22:49;2.43;;;1.77;;
18286;SDS011;9269;50.838;12.094;2023-08-06T12:25:22;1.80;;;1.70;;
18286;SDS011;9269;50.838;12.094;2023-08-06T12:27:57;2.77;;;1.67;;
18286;SDS011;9269;50.838;12.094;2023-08-06T12:30:29;2.23;;;1.87;;
18286;SDS011;9269;50.838;12.094;2023-08-06T12:33:01;2.03;;;1.53;;
18286;SDS011;9269;50.838;12.094;2023-08-06T12:35:36;1.60;;;1.50;;
18286;SDS011;9269;50.838;12.094;2023-08-06T12:38:13;1.77;;;1.60;;
18286;SDS011;9269;50.838;12.094;2023-08-06T12:40:48;3.03;;;1.60;;
18286;SDS011;9269;50.838;12.094;2023-08-06T12:43:20;1.97;;;1.50;;
18286;SDS011;9269;50.838;12.094;2023-08-06T12:45:55;1.50;;;1.40;;
18286;SDS011;9269;50.838;12.094;2023-08-06T12:48:33;2.50;;;1.50;;
18286;SDS011;9269;50.838;12.094;2023-08-06T12:51:09;2.73;;;1.47;;
18286;SDS011;9269;50.838;12.094;2023-08-06T12:53:39;2.10;;;1.77;;
18286;SDS011;9269;50.838;12.094;2023-08-06T12:56:17;1.40;;;1.30;;
18286;SDS011;9269;50.838;12.094;2023-08-06T12:58:51;1.60;;;1.23;;
18286;SDS011;9269;50.838;12.094;2023-08-06T13:01:23;1.30;;;1.20;;
18286;SDS011;9269;50.838;12.094;2023-08-06T13:03:57;1.27;;;1.10;;
18286;SDS011;9269;50.838;12.094;2023-08-06T13:06:52;1.50;;;1.40;;
18286;SDS011;9269;50.838;12.094;2023-08-06T13:09:30;1.40;;;1.30;;
18286;SDS011;9269;50.838;12.094;2023-08-06T13:12:13;1.70;;;1.57;;
18286;SDS011;9269;50.838;12.094;2023-08-06T13:14:52;4.47;;;1.83;;
18286;SDS011;9269;50.838;12.094;2023-08-06T13:17:27;1.60;;;1.50;;
18286;SDS011;9269;50.838;12.094;2023-08-06T13:20:03;1.90;;;1.80;;
18286;SDS011;9269;50.838;12.094;2023-08-06T13:22:35;2.00;;;1.80;;
18286;SDS011;9269;50.838;12.094;2023-08-06T13:25:10;1.80;;;1.70;;
18286;SDS011;9269;50.838;12.094;2023-08-06T13:27:49;2.33;;;1.70;;
18286;SDS011;9269;50.838;12.094;2023-08-06T13:30:25;2.53;;;1.80;;
18286;SDS011;9269;50.838;12.094;2023-08-06T13:32:57;2.00;;;1.90;;
18286;SDS011;9269;50.838;12.094;2023-08-06T13:35:34;1.90;;;1.70;;
18286;SDS011;9269;50.838;12.094;2023-08-06T13:38:06;1.87;;;1.77;;
18286;SDS011;9269;50.838;12.094;2023-08-06T13:40:37;2.13;;;2.03;;
18286;SDS011;9269;50.838;12.094;2023-08-06T13:43:15;2.27;;;2.00;;
18286;SDS011;9269;50.838;12.094;2023-08-06T13:45:51;2.27;;;2.07;;
18286;SDS011;9269;50.838;12.094;2023-08-06T13:48:26;2.50;;;2.20;;
18286;SDS011;9269;50.838;12.094;2023-08-06T13:51:04;2.30;;;2.20;;
18286;SDS011;9269;50.838;12.094;2023-08-06T13:53:48;2.27;;;2.07;;
18286;SDS011;9269;50.838;12.094;2023-08-06T13:56:24;2.40;;;2.03;;
18286;SDS011;9269;50.838;12.094;2023-08-06T13:58:54;2.00;;;1.90;;
18286;SDS011;9269;50.838;12.094;2023-08-06T14:01:36;1.90;;;1.80;;
18286;SDS011;9269;50.838;12.094;2023-08-06T14:04:29;1.93;;;1.83;;
18286;SDS011;9269;50.838;12.094;2023-08-06T14:07:09;1.90;;;1.80;;
18286;SDS011;9269;50.838;12.094;2023-08-06T14:09:43;2.03;;;1.80;;
18286;SDS011;9269;50.838;12.094;2023-08-06T14:12:22;1.80;;;1.70;;
18286;SDS011;9269;50.838;12.094;2023-08-06T14:14:58;2.10;;;1.80;;
18286;SDS011;9269;50.838;12.094;2023-08-06T14:17:44;2.20;;;1.90;;
18286;SDS011;9269;50.838;12.094;2023-08-06T14:20:14;2.27;;;2.07;;
18286;SDS011;9269;50.838;12.094;2023-08-06T14:22:51;1.70;;;1.60;;
18286;SDS011;9269;50.838;12.094;2023-08-06T14:25:24;1.70;;;1.60;;
18286;SDS011;9269;50.838;12.094;2023-08-06T14:28:03;2.30;;;2.10;;
18286;SDS011;9269;50.838;12.094;2023-08-06T14:30:35;2.13;;;1.67;;
18286;SDS011;9269;50.838;12.094;2023-08-06T14:33:11;1.70;;;1.60;;
18286;SDS011;9269;50.838;12.094;2023-08-06T14:35:59;2.10;;;1.67;;
18286;SDS011;9269;50.838;12.094;2023-08-06T14:38:40;3.13;;;1.67;;
18286;SDS011;9269;50.838;12.094;2023-08-06T14:41:38;2.73;;;2.10;;
18286;SDS011;9269;50.838;12.094;2023-08-06T14:44:12;1.70;;;1.60;;
18286;SDS011;9269;50.838;12.094;2023-08-06T14:46:47;2.30;;;1.87;;
18286;SDS011;9269;50.838;12.094;2023-08-06T14:49:28;2.40;;;2.20;;
18286;SDS011;9269;50.838;12.094;2023-08-06T14:52:13;2.27;;;2.07;;
18286;SDS011;9269;50.838;12.094;2023-08-06T14:54:45;2.37;;;2.10;;
18286;SDS011;9269;50.838;12.094;2023-08-06T14:57:23;1.90;;;1.70;;
18286;SDS011;9269;50.838;12.094;2023-08-06T15:00:03;2.17;;;1.90;;
18286;SDS011;9269;50.838;12.094;2023-08-06T15:02:43;1.97;;;1.73;;
18286;SDS011;9269;50.838;12.094;2023-08-06T15:05:17;2.07;;;1.67;;
18286;SDS011;9269;50.838;12.094;2023-08-06T15:07:53;1.50;;;1.40;;
18286;SDS011;9269;50.838;12.094;2023-08-06T15:10:41;2.50;;;1.43;;
18286;SDS011;9269;50.838;12.094;2023-08-06T15:13:14;1.80;;;1.60;;
18286;SDS011;9269;50.838;12.094;2023-08-06T15:15:50;1.43;;;1.33;;
18286;SDS011;9269;50.838;12.094;2023-08-06T15:18:28;2.17;;;1.53;;
18286;SDS011;9269;50.838;12.094;2023-08-06T15:21:01;2.20;;;1.40;;
18286;SDS011;9269;50.838;12.094;2023-08-06T15:23:38;1.97;;;1.47;;
18286;SDS011;9269;50.838;12.094;2023-08-06T15:26:15;1.27;;;1.20;;
18286;SDS011;9269;50.838;12.094;2023-08-06T15:28:48;1.30;;;1.17;;
18286;SDS011;9269;50.838;12.094;2023-08-06T15:31:33;1.43;;;1.30;;
18286;SDS011;9269;50.838;12.094;2023-08-06T15:34:08;1.33;;;1.20;;
18286;SDS011;9269;50.838;12.094;2023-08-06T15:36:55;1.73;;;1.10;;